createdAt,value
2022-10-17T00:00:34.448Z,11.50
2022-10-17T00:03:01.302Z,11.50
2022-10-17T00:05:27.956Z,11.40
2022-10-17T00:07:54.954Z,11.50
2022-10-17T00:10:22.566Z,11.40
2022-10-17T00:12:50.912Z,11.50
2022-10-17T00:15:19.524Z,11.50
2022-10-17T00:17:46.288Z,11.50
2022-10-17T00:20:13.307Z,11.50
2022-10-17T00:22:40.001Z,11.60
2022-10-17T00:25:07.097Z,11.60
2022-10-17T00:27:38.575Z,11.60
2022-10-17T00:30:07.561Z,11.70
2022-10-17T00:32:34.202Z,11.70
2022-10-17T00:35:00.826Z,11.70
2022-10-17T00:37:27.780Z,11.70
2022-10-17T00:39:54.639Z,11.70
2022-10-17T00:42:21.564Z,11.70
2022-10-17T00:44:48.079Z,11.70
2022-10-17T00:47:19.436Z,11.70
2022-10-17T00:49:47.279Z,11.70
2022-10-17T00:52:18.526Z,11.70
2022-10-17T00:54:49.837Z,11.70
2022-10-17T00:57:17.440Z,11.70
2022-10-17T00:59:50.612Z,11.70
2022-10-17T01:02:20.079Z,11.70
2022-10-17T01:04:49.008Z,11.70
2022-10-17T01:07:15.718Z,11.60
2022-10-17T01:09:43.452Z,11.60
2022-10-17T01:12:24.182Z,11.50
2022-10-17T01:15:09.703Z,11.50
2022-10-17T01:18:00.009Z,11.50
2022-10-17T01:20:51.339Z,11.50
2022-10-17T01:23:36.885Z,11.50
2022-10-17T01:26:37.504Z,11.50
2022-10-17T01:29:09.888Z,11.60
2022-10-17T01:31:52.636Z,11.60
2022-10-17T01:34:28.424Z,11.60
2022-10-17T01:37:27.159Z,11.60
2022-10-17T01:40:10.510Z,11.70
2022-10-17T01:42:57.481Z,11.70
2022-10-17T01:45:50.553Z,11.70
2022-10-17T01:48:26.565Z,11.60
2022-10-17T01:50:59.509Z,11.60
2022-10-17T01:53:31.724Z,11.60
2022-10-17T01:56:02.275Z,11.50
2022-10-17T01:58:33.819Z,11.40
2022-10-17T02:01:04.053Z,11.40
2022-10-17T02:03:32.435Z,11.30
2022-10-17T02:05:59.010Z,11.30
2022-10-17T02:08:28.088Z,11.20
2022-10-17T02:11:10.947Z,11.20
2022-10-17T02:14:06.533Z,11.20
2022-10-17T02:16:41.753Z,11.10
2022-10-17T02:19:45.732Z,11.10
2022-10-17T02:22:54.168Z,11.10
2022-10-17T02:25:26.523Z,11.10
2022-10-17T02:27:55.847Z,11.00
2022-10-17T02:30:37.653Z,11.00
2022-10-17T02:33:28.393Z,11.00
2022-10-17T02:36:00.422Z,11.00
2022-10-17T02:38:30.545Z,11.00
2022-10-17T02:40:57.872Z,11.00
2022-10-17T02:43:25.337Z,11.00
2022-10-17T02:45:52.659Z,11.00
2022-10-17T02:48:30.727Z,11.00
2022-10-17T02:51:20.213Z,11.00
2022-10-17T02:54:15.688Z,11.00
2022-10-17T02:56:49.444Z,11.00
2022-10-17T02:59:20.094Z,11.00
2022-10-17T03:01:46.928Z,10.90
2022-10-17T03:04:15.037Z,10.90
2022-10-17T03:06:42.085Z,10.90
2022-10-17T03:09:08.896Z,10.90
2022-10-17T03:11:35.704Z,10.90
2022-10-17T03:14:02.301Z,10.90
2022-10-17T03:16:29.164Z,10.90
2022-10-17T03:18:55.973Z,10.90
2022-10-17T03:21:22.717Z,10.90
2022-10-17T03:23:49.369Z,10.90
2022-10-17T03:26:15.956Z,10.80
2022-10-17T03:28:42.747Z,10.80
2022-10-17T03:31:12.948Z,10.80
2022-10-17T03:33:39.590Z,10.80
2022-10-17T03:36:07.886Z,10.80
2022-10-17T03:38:35.533Z,10.80
2022-10-17T03:41:03.221Z,10.80
2022-10-17T03:43:30.544Z,10.80
2022-10-17T03:45:58.821Z,10.80
2022-10-17T03:48:26.772Z,10.80
2022-10-17T03:50:59.093Z,10.70
2022-10-17T03:53:25.798Z,10.80
2022-10-17T03:55:52.365Z,10.70
2022-10-17T03:58:19.453Z,10.80
2022-10-17T04:00:46.220Z,10.70
2022-10-17T04:03:17.101Z,10.70
2022-10-17T04:05:43.982Z,10.70
2022-10-17T04:08:10.646Z,10.70
2022-10-17T04:10:37.285Z,10.70
2022-10-17T04:13:04.554Z,10.70
2022-10-17T04:15:31.140Z,10.80
2022-10-17T04:17:57.785Z,10.80
2022-10-17T04:20:24.373Z,10.80
2022-10-17T04:22:50.988Z,10.90
2022-10-17T04:25:17.562Z,10.90
2022-10-17T04:27:44.162Z,10.90
2022-10-17T04:30:11.218Z,10.90
2022-10-17T04:32:38.878Z,11.00
2022-10-17T04:35:06.206Z,11.00
2022-10-17T04:37:32.835Z,11.00
2022-10-17T04:39:59.497Z,11.00
2022-10-17T04:42:26.182Z,10.90
2022-10-17T04:44:52.852Z,10.90
2022-10-17T04:47:19.406Z,10.80
2022-10-17T04:49:46.097Z,10.80
2022-10-17T04:52:12.762Z,10.70
2022-10-17T04:54:39.325Z,10.70
2022-10-17T04:57:05.994Z,10.70
2022-10-17T04:59:32.594Z,10.70
2022-10-17T05:01:59.210Z,10.70
2022-10-17T05:04:26.887Z,10.70
2022-10-17T05:06:53.493Z,10.80
2022-10-17T05:09:20.113Z,10.80
2022-10-17T05:11:46.725Z,10.80
2022-10-17T05:14:13.357Z,10.80
2022-10-17T05:16:39.892Z,10.80
2022-10-17T05:19:06.546Z,10.90
2022-10-17T05:24:09.516Z,10.90
2022-10-17T05:26:36.132Z,10.90
2022-10-17T05:29:03.350Z,10.80
2022-10-17T05:31:30.907Z,10.80
2022-10-17T05:34:01.989Z,10.90
2022-10-17T05:36:28.947Z,10.90
2022-10-17T05:38:55.537Z,10.90
2022-10-17T05:41:22.136Z,10.90
2022-10-17T05:43:50.216Z,10.90
2022-10-17T05:46:16.841Z,10.90
2022-10-17T05:48:43.432Z,11.00
2022-10-17T05:51:10.551Z,11.00
2022-10-17T05:53:41.477Z,11.00
2022-10-17T05:56:10.942Z,11.00
2022-10-17T05:58:50.656Z,11.00
2022-10-17T06:01:19.319Z,11.10
2022-10-17T06:03:45.925Z,11.10
2022-10-17T06:06:14.349Z,11.10
2022-10-17T06:08:41.213Z,11.10
2022-10-17T06:11:10.203Z,11.10
2022-10-17T06:13:38.227Z,11.20
2022-10-17T06:16:05.224Z,11.20
2022-10-17T06:18:32.207Z,11.30
2022-10-17T06:21:04.289Z,11.30
2022-10-17T06:23:30.980Z,11.40
2022-10-17T06:26:05.760Z,11.50
2022-10-17T06:28:33.005Z,11.60
2022-10-17T06:30:59.695Z,11.60
2022-10-17T06:33:26.315Z,11.70
2022-10-17T06:35:54.644Z,11.80
2022-10-17T06:38:24.623Z,11.80
2022-10-17T06:40:51.818Z,11.90
2022-10-17T06:43:18.432Z,12.00
2022-10-17T06:45:46.397Z,12.10
2022-10-17T06:48:13.582Z,12.20
2022-10-17T06:50:40.175Z,12.20
2022-10-17T06:53:06.893Z,12.30
2022-10-17T06:55:33.484Z,12.30
2022-10-17T06:58:00.085Z,12.40
2022-10-17T07:00:26.890Z,12.50
2022-10-17T07:02:53.505Z,12.60
2022-10-17T07:05:20.212Z,12.60
2022-10-17T07:07:48.564Z,12.70
2022-10-17T07:10:17.660Z,12.90
2022-10-17T07:12:45.681Z,13.00
2022-10-17T07:15:12.590Z,13.10
2022-10-17T07:17:39.436Z,13.20
2022-10-17T07:20:06.685Z,13.20
2022-10-17T07:22:33.517Z,13.30
2022-10-17T07:25:00.178Z,13.40
2022-10-17T07:27:27.209Z,13.50
2022-10-17T07:29:54.191Z,13.60
2022-10-17T07:32:20.762Z,13.70
2022-10-17T07:34:47.533Z,13.80
2022-10-17T07:37:14.148Z,13.90
2022-10-17T07:39:40.712Z,14.10
2022-10-17T07:42:10.189Z,14.30
2022-10-17T07:44:36.813Z,14.40
2022-10-17T07:47:04.224Z,14.50
2022-10-17T07:49:31.265Z,14.60
2022-10-17T07:51:57.896Z,14.70
2022-10-17T07:54:24.540Z,14.80
2022-10-17T07:56:51.095Z,14.90
2022-10-17T07:59:18.594Z,15.00
2022-10-17T08:01:45.427Z,15.10
2022-10-17T08:04:11.987Z,15.20
2022-10-17T08:06:38.730Z,15.20
2022-10-17T08:09:05.465Z,15.30
2022-10-17T08:11:32.191Z,15.40
2022-10-17T08:13:58.835Z,15.50
2022-10-17T08:16:25.512Z,15.70
2022-10-17T08:18:52.126Z,15.80
2022-10-17T08:21:18.713Z,15.90
2022-10-17T08:23:45.632Z,16.00
2022-10-17T08:26:16.639Z,16.10
2022-10-17T08:28:43.449Z,16.30
2022-10-17T08:31:13.295Z,16.40
2022-10-17T08:33:40.703Z,16.60
2022-10-17T08:36:08.644Z,16.70
2022-10-17T08:38:38.479Z,16.80
2022-10-17T08:41:32.387Z,17.00
2022-10-17T08:44:05.995Z,17.30
2022-10-17T08:46:37.251Z,17.50
2022-10-17T08:49:20.818Z,17.70
2022-10-17T08:51:53.047Z,17.90
2022-10-17T08:54:32.760Z,18.00
2022-10-17T08:56:59.368Z,18.20
2022-10-17T08:59:28.720Z,18.40
2022-10-17T09:02:21.944Z,18.60
2022-10-17T09:04:48.543Z,18.80
2022-10-17T09:07:28.456Z,19.00
2022-10-17T09:10:11.596Z,19.20
2022-10-17T09:13:07.992Z,19.40
2022-10-17T09:15:42.916Z,19.60
2022-10-17T09:18:21.179Z,19.70
2022-10-17T09:21:00.463Z,19.90
2022-10-17T09:24:15.790Z,19.90
2022-10-17T09:26:44.516Z,19.90
2022-10-17T09:29:20.040Z,19.90
2022-10-17T09:32:03.632Z,19.90
2022-10-17T09:34:32.066Z,19.80
2022-10-17T09:37:00.889Z,19.90
2022-10-17T09:39:31.937Z,19.90
2022-10-17T09:42:00.694Z,19.90
2022-10-17T09:44:38.703Z,19.90
2022-10-17T09:47:27.076Z,19.90
2022-10-17T09:49:53.905Z,19.90
2022-10-17T09:52:32.269Z,19.90
2022-10-17T09:55:01.754Z,19.90
2022-10-17T09:57:28.548Z,20.00
2022-10-17T10:00:04.387Z,20.00
2022-10-17T10:02:33.474Z,20.10
2022-10-17T10:05:04.093Z,20.20
2022-10-17T10:07:39.179Z,20.20
2022-10-17T10:10:27.773Z,20.20
2022-10-17T10:13:15.995Z,20.30
2022-10-17T10:15:47.733Z,20.40
2022-10-17T10:18:26.485Z,20.50
2022-10-17T10:21:13.023Z,20.50
2022-10-17T10:23:42.138Z,20.60
2022-10-17T10:26:26.475Z,20.60
2022-10-17T10:28:55.610Z,20.80
2022-10-17T10:31:48.946Z,21.00
2022-10-17T10:34:28.918Z,21.10
2022-10-17T10:36:58.223Z,21.30
2022-10-17T10:39:47.968Z,21.40
2022-10-17T10:42:22.936Z,21.60
2022-10-17T10:44:50.853Z,21.80
2022-10-17T10:47:21.884Z,21.80
2022-10-17T10:49:51.743Z,21.90
2022-10-17T10:52:35.317Z,21.90
2022-10-17T10:55:26.268Z,21.90
2022-10-17T10:57:58.605Z,21.80
2022-10-17T11:00:28.387Z,21.90
2022-10-17T11:03:21.483Z,22.00
2022-10-17T11:05:55.726Z,22.10
2022-10-17T11:08:42.627Z,22.40
2022-10-17T11:11:44.492Z,22.60
2022-10-17T11:14:49.521Z,22.80
2022-10-17T11:17:30.530Z,23.20
2022-10-17T11:20:29.801Z,23.50
2022-10-17T11:23:21.722Z,23.80
2022-10-17T11:25:51.924Z,24.00
2022-10-17T11:28:21.356Z,24.00
2022-10-17T11:31:03.293Z,24.10
2022-10-17T11:33:50.408Z,24.30
2022-10-17T11:36:19.585Z,24.50
2022-10-17T11:38:57.720Z,24.70
2022-10-17T11:41:46.778Z,24.80
2022-10-17T11:44:38.419Z,25.00
2022-10-17T11:47:25.672Z,25.30
2022-10-17T11:51:59.616Z,25.40
2022-10-17T11:52:56.288Z,25.30
2022-10-17T11:55:26.082Z,25.50
2022-10-17T11:58:00.896Z,25.50
2022-10-17T12:00:51.802Z,25.40
2022-10-17T12:03:46.313Z,25.40
2022-10-17T12:06:12.860Z,25.50
2022-10-17T12:08:58.097Z,25.70
2022-10-17T12:11:46.032Z,25.90
2022-10-17T12:14:39.993Z,26.00
2022-10-17T12:17:29.189Z,25.80
2022-10-17T12:20:17.537Z,25.60
2022-10-17T12:22:52.059Z,25.60
2022-10-17T12:25:31.892Z,25.60
2022-10-17T12:28:24.733Z,25.40
2022-10-17T12:31:09.847Z,25.40
2022-10-17T12:33:50.807Z,25.20
2022-10-17T12:36:17.353Z,25.20
2022-10-17T12:38:49.221Z,25.50
2022-10-17T12:41:37.291Z,25.80
2022-10-17T12:44:28.221Z,26.20
2022-10-17T12:47:10.627Z,26.30
2022-10-17T12:49:43.371Z,26.20
2022-10-17T12:52:18.988Z,25.90
2022-10-17T12:55:07.433Z,25.80
2022-10-17T12:57:55.639Z,25.90
2022-10-17T13:00:31.590Z,26.10
2022-10-17T13:03:12.108Z,26.20
2022-10-17T13:05:41.684Z,26.30
2022-10-17T13:08:19.709Z,26.30
2022-10-17T13:10:51.702Z,26.30
2022-10-17T13:13:39.115Z,26.00
2022-10-17T13:16:05.842Z,25.80
2022-10-17T13:18:33.041Z,25.70
2022-10-17T13:21:15.824Z,25.80
2022-10-17T13:23:42.511Z,25.70
2022-10-17T13:26:21.918Z,25.70
2022-10-17T13:29:06.718Z,25.60
2022-10-17T13:31:36.066Z,25.30
2022-10-17T13:34:06.280Z,25.20
2022-10-17T13:36:35.009Z,25.00
2022-10-17T13:39:11.997Z,25.00
2022-10-17T13:41:41.495Z,24.90
2022-10-17T13:44:17.772Z,24.90
2022-10-17T13:46:45.253Z,24.90
2022-10-17T13:49:18.589Z,24.80
2022-10-17T13:51:47.825Z,24.80
2022-10-17T13:54:38.396Z,24.70
2022-10-17T13:57:15.697Z,24.60
2022-10-17T13:59:44.084Z,24.60
2022-10-17T14:02:20.728Z,24.60
2022-10-17T14:08:09.168Z,24.60
2022-10-17T14:10:35.445Z,24.60
2022-10-17T14:13:04.225Z,24.50
2022-10-17T14:15:33.909Z,24.50
2022-10-17T14:18:07.773Z,24.60
2022-10-17T14:23:35.559Z,24.60
2022-10-17T14:26:14.890Z,24.50
2022-10-17T14:28:44.960Z,24.50
2022-10-17T14:31:29.695Z,24.50
2022-10-17T14:33:57.580Z,24.50
2022-10-17T14:36:40.587Z,24.60
2022-10-17T14:39:15.696Z,24.60
2022-10-17T14:41:45.830Z,24.50
2022-10-17T14:44:30.845Z,24.40
2022-10-17T14:47:30.238Z,24.40
2022-10-17T14:50:01.854Z,24.30
2022-10-17T14:52:30.259Z,24.10
2022-10-17T14:54:58.665Z,23.90
2022-10-17T14:57:34.400Z,23.70
2022-10-17T15:00:01.163Z,23.70
2022-10-17T15:02:29.896Z,23.50
2022-10-17T15:04:57.321Z,23.50
2022-10-17T15:07:24.152Z,23.40
2022-10-17T15:09:52.518Z,23.20
2022-10-17T15:12:23.510Z,23.00
2022-10-17T15:14:51.745Z,22.90
2022-10-17T15:17:25.725Z,22.70
2022-10-17T15:19:52.644Z,22.60
2022-10-17T15:22:19.493Z,22.40
2022-10-17T15:24:46.615Z,22.30
2022-10-17T15:27:21.601Z,22.20
2022-10-17T15:29:49.360Z,22.10
2022-10-17T15:32:16.374Z,21.90
2022-10-17T15:34:43.013Z,21.80
2022-10-17T15:37:33.508Z,21.70
2022-10-17T15:40:00.036Z,21.60
2022-10-17T15:42:29.280Z,21.50
2022-10-17T15:44:56.813Z,21.40
2022-10-17T15:47:35.054Z,21.30
2022-10-17T15:50:02.349Z,21.10
2022-10-17T15:52:29.100Z,21.00
2022-10-17T15:54:57.390Z,20.80
2022-10-17T15:57:29.312Z,20.70
2022-10-17T15:59:58.690Z,20.60
2022-10-17T16:02:25.474Z,20.40
2022-10-17T16:04:52.870Z,20.30
2022-10-17T16:07:20.670Z,20.20
2022-10-17T16:09:47.656Z,20.00
2022-10-17T16:14:53.354Z,19.80
2022-10-17T16:17:20.013Z,19.80
2022-10-17T16:19:46.616Z,19.70
2022-10-17T16:22:22.183Z,19.80
2022-10-17T16:24:48.765Z,19.70
2022-10-17T16:27:15.654Z,19.70
2022-10-17T16:29:42.305Z,19.70
2022-10-17T16:32:10.334Z,19.60
2022-10-17T16:34:37.022Z,19.50
2022-10-17T16:37:03.617Z,19.40
2022-10-17T16:39:30.479Z,19.30
2022-10-17T16:41:58.607Z,19.20
2022-10-17T16:44:25.527Z,19.10
2022-10-17T16:46:52.173Z,19.00
2022-10-17T16:49:18.788Z,19.00
2022-10-17T16:51:45.430Z,18.80
2022-10-17T16:54:12.117Z,18.70
2022-10-17T16:56:38.684Z,18.60
2022-10-17T16:59:05.293Z,18.50
2022-10-17T17:01:32.026Z,18.40
2022-10-17T17:03:59.211Z,18.30
2022-10-17T17:06:28.372Z,18.20
2022-10-17T17:08:55.600Z,18.10
2022-10-17T17:11:24.471Z,18.00
2022-10-17T17:13:51.162Z,17.90
2022-10-17T17:16:21.542Z,17.90
2022-10-17T17:18:50.817Z,17.80
2022-10-17T17:21:17.636Z,17.80
2022-10-17T17:23:44.302Z,17.80
2022-10-17T17:26:16.705Z,17.80
2022-10-17T17:28:43.845Z,17.80
2022-10-17T17:31:13.404Z,17.80
2022-10-17T17:33:41.077Z,17.80
2022-10-17T17:36:10.470Z,17.90
2022-10-17T17:38:37.419Z,17.90
2022-10-17T17:41:04.392Z,17.90
2022-10-17T17:43:31.404Z,17.90
2022-10-17T17:46:01.742Z,18.00
2022-10-17T17:48:28.526Z,18.00
2022-10-17T17:50:55.178Z,18.00
2022-10-17T17:53:21.939Z,17.90
2022-10-17T17:55:48.715Z,17.90
2022-10-17T17:58:15.529Z,18.00
2022-10-17T18:00:42.642Z,18.10
2022-10-17T18:03:13.108Z,18.10
2022-10-17T18:05:43.274Z,18.10
2022-10-17T18:08:10.124Z,18.10
2022-10-17T18:10:36.917Z,18.20
2022-10-17T18:13:12.928Z,18.20
2022-10-17T18:15:43.664Z,18.20
2022-10-17T18:18:10.864Z,18.30
2022-10-17T18:20:42.363Z,18.20
2022-10-17T18:23:14.384Z,18.10
2022-10-17T18:25:41.105Z,17.90
2022-10-17T18:28:11.217Z,17.80
2022-10-17T18:30:40.683Z,17.70
2022-10-17T18:33:13.417Z,17.80
2022-10-17T18:35:43.050Z,17.80
2022-10-17T18:38:09.782Z,17.80
2022-10-17T18:40:36.534Z,17.80
2022-10-17T18:43:03.342Z,17.80
2022-10-17T18:45:30.112Z,17.80
2022-10-17T18:47:56.799Z,17.90
2022-10-17T18:50:34.699Z,17.90
2022-10-17T18:53:01.556Z,17.90
2022-10-17T18:55:29.782Z,17.90
2022-10-17T18:57:56.468Z,17.90
2022-10-17T19:00:23.138Z,17.90
2022-10-17T19:02:49.756Z,17.90
2022-10-17T19:05:16.684Z,17.90
2022-10-17T19:07:43.249Z,17.90
2022-10-17T19:10:09.917Z,18.00
2022-10-17T19:12:36.490Z,18.00
2022-10-17T19:15:03.513Z,18.00
2022-10-17T19:17:30.376Z,18.10
2022-10-17T19:19:57.419Z,18.00
2022-10-17T19:22:24.044Z,18.00
2022-10-17T19:24:50.857Z,17.90
2022-10-17T19:27:19.589Z,17.90
2022-10-17T19:29:46.202Z,17.80
2022-10-17T19:32:16.677Z,17.70
2022-10-17T19:34:45.869Z,17.70
2022-10-17T19:37:20.546Z,17.60
2022-10-17T19:39:51.393Z,17.50
2022-10-17T19:42:18.029Z,17.50
2022-10-17T19:44:44.614Z,17.50
2022-10-17T19:47:11.205Z,17.40
2022-10-17T19:49:38.589Z,17.20
2022-10-17T19:52:05.232Z,17.20
2022-10-17T19:54:31.987Z,17.10
2022-10-17T19:56:58.568Z,17.00
2022-10-17T19:59:26.156Z,16.90
2022-10-17T20:01:52.873Z,16.90
2022-10-17T20:04:19.534Z,16.90
2022-10-17T20:06:46.177Z,16.90
2022-10-17T20:09:16.623Z,16.80
2022-10-17T20:11:44.308Z,16.80
2022-10-17T20:14:11.032Z,16.80
2022-10-17T20:16:37.744Z,16.90
2022-10-17T20:19:08.273Z,16.90
2022-10-17T20:21:36.997Z,16.90
2022-10-17T20:24:05.809Z,16.90
2022-10-17T20:26:38.143Z,16.90
2022-10-17T20:29:10.882Z,16.90
2022-10-17T20:31:38.254Z,16.90
2022-10-17T20:34:05.102Z,16.80
2022-10-17T20:36:32.292Z,16.70
2022-10-17T20:38:59.478Z,16.70
2022-10-17T20:41:27.017Z,16.60
2022-10-17T20:43:55.275Z,16.60
2022-10-17T20:46:35.885Z,16.50
2022-10-17T20:49:05.439Z,16.50
2022-10-17T20:51:32.692Z,16.40
2022-10-17T20:53:59.356Z,16.40
2022-10-17T20:56:29.806Z,16.30
2022-10-17T20:58:58.979Z,16.20
2022-10-17T21:01:26.944Z,16.10
2022-10-17T21:03:54.201Z,16.10
2022-10-17T21:06:21.700Z,16.00
2022-10-17T21:08:49.180Z,15.90
2022-10-17T21:11:16.981Z,15.80
2022-10-17T21:13:44.939Z,15.70
2022-10-17T21:16:13.861Z,15.70
2022-10-17T21:18:41.305Z,15.50
2022-10-17T21:21:13.816Z,15.50
2022-10-17T21:23:42.041Z,15.40
2022-10-17T21:26:10.203Z,15.30
2022-10-17T21:28:37.750Z,15.20
2022-10-17T21:31:26.230Z,15.20
2022-10-17T21:33:59.225Z,15.20
2022-10-17T21:36:27.118Z,15.10
2022-10-17T21:38:56.231Z,15.10
2022-10-17T21:41:25.842Z,15.00
2022-10-17T21:43:57.261Z,15.00
2022-10-17T21:46:24.674Z,15.00
2022-10-17T21:48:51.896Z,14.90
2022-10-17T21:51:21.934Z,14.90
2022-10-17T21:53:49.569Z,14.90
2022-10-17T21:56:18.591Z,14.80
2022-10-17T21:58:46.208Z,14.80
2022-10-17T22:01:20.674Z,14.80
2022-10-17T22:03:50.648Z,14.70
2022-10-17T22:09:14.287Z,14.60
2022-10-17T22:11:41.933Z,14.60
2022-10-17T22:14:12.890Z,14.60
2022-10-17T22:16:40.456Z,14.50
2022-10-17T22:19:08.305Z,14.50
2022-10-17T22:21:36.655Z,14.50
2022-10-17T22:24:06.493Z,14.50
2022-10-17T22:26:35.152Z,14.40
2022-10-17T22:29:02.063Z,14.40
2022-10-17T22:31:28.750Z,14.40
2022-10-17T22:33:56.560Z,14.40
2022-10-17T22:36:23.560Z,14.40
2022-10-17T22:38:50.429Z,14.40
2022-10-17T22:41:17.205Z,14.30
2022-10-17T22:43:43.876Z,14.30
2022-10-17T22:46:12.946Z,14.30
2022-10-17T22:48:39.685Z,14.20
2022-10-17T22:51:06.602Z,14.20
2022-10-17T22:53:34.977Z,14.10
2022-10-17T22:56:13.008Z,14.10
2022-10-17T22:58:39.885Z,14.10
2022-10-17T23:01:08.296Z,14.00
2022-10-17T23:03:35.252Z,14.00
2022-10-17T23:06:02.235Z,14.00
2022-10-17T23:08:29.020Z,14.00
2022-10-17T23:10:55.973Z,14.00
2022-10-17T23:13:22.687Z,14.00
2022-10-17T23:15:54.102Z,13.90
2022-10-17T23:18:21.975Z,14.00
2022-10-17T23:20:49.651Z,13.90
2022-10-17T23:23:16.494Z,13.90
2022-10-17T23:25:43.585Z,13.90
2022-10-17T23:28:11.020Z,13.80
2022-10-17T23:30:38.982Z,13.80
2022-10-17T23:33:06.437Z,13.80
2022-10-17T23:35:33.733Z,13.80
2022-10-17T23:38:00.424Z,13.80
2022-10-17T23:40:27.110Z,13.80
2022-10-17T23:42:53.762Z,13.80
2022-10-17T23:45:20.463Z,13.80
2022-10-17T23:47:47.115Z,13.70
2022-10-17T23:50:13.956Z,13.70
2022-10-17T23:52:40.612Z,13.70
2022-10-17T23:55:08.188Z,13.70
2022-10-17T23:57:34.917Z,13.80
